Time;durP1;ratioP1;P1;durP2;ratioP2;P2;SDS_P1;SDS_P2;PMS_P1;PMS_P2;Temp;Humidity;BMP_temperature;BMP_pressure;BME280_temperature;BME280_humidity;BME280_pressure;Samples;Min_cycle;Max_cycle;Signal;HPM_P1;HPM_P2
2022/06/18 00:01:45;;;;;;;0.30;0.30;;;;;;;20.87;58.05;97263.34;10374334;28;20042;-20
2022/06/18 00:07:04;;;;;;;0.50;0.50;;;;;;;20.87;58.34;97254.00;10372835;28;20305;-21
2022/06/18 00:17:33;;;;;;;0.10;0.10;;;;;;;21.05;59.02;97261.59;10372935;28;20030;-21
2022/06/18 00:22:33;;;;;;;0.30;0.30;;;;;;;20.96;58.37;97263.31;10372120;28;20500;-22
2022/06/18 00:27:34;;;;;;;0.25;0.25;;;;;;;20.92;58.04;97262.47;10372590;28;20515;-21
2022/06/18 00:32:34;;;;;;;0.40;0.40;;;;;;;20.91;58.04;97255.69;10371017;28;20049;-20
2022/06/18 00:37:35;;;;;;;0.50;0.33;;;;;;;20.89;58.01;97249.72;10371920;28;20407;-21
2022/06/18 00:42:37;;;;;;;0.60;0.60;;;;;;;20.88;57.95;97255.69;10372056;28;20034;-21
2022/06/18 00:48:14;;;;;;;0.40;0.40;;;;;;;20.87;57.91;97254.00;10410291;28;20042;-20
2022/06/18 00:53:29;;;;;;;0.50;0.50;;;;;;;20.86;57.80;97270.13;10399503;28;20098;-20
2022/06/18 00:58:35;;;;;;;0.40;0.40;;;;;;;20.88;57.91;97270.13;10389995;28;20029;-21
2022/06/18 01:03:36;;;;;;;;;;;;;;;21.05;59.55;97268.41;10369611;28;20135;-22
2022/06/18 01:08:42;;;;;;;0.28;0.20;;;;;;;21.12;58.24;97265.84;10379437;28;19923;-21
2022/06/18 01:13:42;;;;;;;0.50;0.40;;;;;;;20.97;58.60;97258.22;10368855;28;20057;-22
2022/06/18 01:18:48;;;;;;;0.40;0.40;;;;;;;20.92;57.89;97249.75;10368911;28;20083;-21
2022/06/18 01:23:55;;;;;;;0.30;0.30;;;;;;;20.90;57.94;97250.59;10368600;28;20038;-20
2022/06/18 01:28:56;;;;;;;1.15;0.45;;;;;;;20.83;57.84;97234.47;10368607;28;20041;-21
2022/06/18 01:33:57;;;;;;;0.40;0.40;;;;;;;20.88;57.90;97232.78;10368079;28;20029;-21
2022/06/18 01:39:03;;;;;;;0.55;0.50;;;;;;;20.88;57.90;97227.69;10369245;28;20511;-23
2022/06/18 01:44:12;;;;;;;0.52;0.52;;;;;;;20.88;58.05;97221.75;10377234;28;20403;-21
2022/06/18 01:49:17;;;;;;;0.60;0.60;;;;;;;20.87;58.03;97217.53;10400999;28;20030;-22
2022/06/18 01:54:22;;;;;;;0.30;0.30;;;;;;;21.01;59.84;97218.31;10401783;28;20029;-22
2022/06/18 01:59:32;;;;;;;0.20;0.20;;;;;;;21.16;58.27;97211.53;10395146;28;20025;-21
2022/06/18 02:04:35;;;;;;;0.40;0.40;;;;;;;21.02;58.41;97209.84;10366456;28;20122;-20
2022/06/18 02:09:45;;;;;;;0.30;0.30;;;;;;;20.94;58.12;97192.03;10368163;28;20212;-20
2022/06/18 02:14:50;;;;;;;0.32;0.32;;;;;;;20.92;57.85;97186.13;10365656;28;20068;-22
2022/06/18 02:19:55;;;;;;;0.40;0.40;;;;;;;20.89;57.88;97186.09;10367287;28;20095;-21
2022/06/18 02:24:57;;;;;;;0.40;0.40;;;;;;;20.89;57.74;97181.00;10366518;28;20488;-20
2022/06/18 02:29:57;;;;;;;0.30;0.30;;;;;;;20.88;57.89;97169.13;10367340;28;20029;-23
2022/06/18 02:35:12;;;;;;;0.70;0.60;;;;;;;20.88;57.98;97166.59;10382169;28;20054;-21
2022/06/18 02:40:21;;;;;;;0.32;0.32;;;;;;;20.88;57.83;97164.03;10367208;28;20061;-21
2022/06/18 02:45:24;;;;;;;0.40;0.40;;;;;;;20.97;60.20;97151.28;10386751;28;20050;-22
2022/06/18 02:50:28;;;;;;;0.30;0.30;;;;;;;21.15;58.56;97156.31;10406170;28;20026;-21
2022/06/18 02:55:36;;;;;;;0.30;0.30;;;;;;;21.01;58.45;97155.53;10411588;28;20025;-21
2022/06/18 03:00:39;;;;;;;0.30;0.30;;;;;;;20.95;57.85;97150.47;10376225;28;20527;-20
2022/06/18 03:05:40;;;;;;;0.93;0.70;;;;;;;20.92;58.01;97147.94;10374564;28;20038;-21
2022/06/18 03:15:59;;;;;;;0.40;0.40;;;;;;;20.90;58.16;97158.97;10372039;28;20038;-20
2022/06/18 03:21:17;;;;;;;0.55;0.50;;;;;;;20.89;57.84;97160.66;10372945;28;20037;-22
2022/06/18 03:26:18;;;;;;;0.50;0.50;;;;;;;20.88;57.74;97171.69;10388447;28;20026;-21
2022/06/18 03:31:24;;;;;;;0.57;0.57;;;;;;;20.89;57.94;97170.81;10372161;28;20099;-21
2022/06/18 03:36:25;;;;;;;0.30;0.30;;;;;;;20.97;59.42;97166.56;10372170;28;20030;-20
2022/06/18 03:41:26;;;;;;;0.40;0.40;;;;;;;21.16;58.86;97175.00;10371761;28;20033;-21
2022/06/18 03:46:29;;;;;;;0.40;0.38;;;;;;;21.09;58.68;97175.88;10412241;28;20037;-21
2022/06/18 03:51:31;;;;;;;0.28;0.28;;;;;;;20.98;58.06;97180.16;10411230;28;20404;-22
2022/06/18 03:56:34;;;;;;;0.40;0.40;;;;;;;20.95;57.97;97196.28;10406372;28;20369;-21
2022/06/18 04:01:40;;;;;;;0.50;0.50;;;;;;;20.92;58.00;97186.13;10371233;28;20116;-21
2022/06/18 04:06:42;;;;;;;0.52;0.32;;;;;;;20.92;57.94;97193.75;10369658;28;20522;-23
2022/06/18 04:12:01;;;;;;;0.57;0.57;;;;;;;20.90;57.91;97192.06;10371600;28;20197;-21
2022/06/18 04:17:04;;;;;;;0.47;0.30;;;;;;;20.89;57.87;97190.38;10370580;28;20040;-21
2022/06/18 04:22:04;;;;;;;0.38;0.38;;;;;;;20.88;57.87;97179.31;10370488;28;20030;-21
2022/06/18 04:27:16;;;;;;;0.60;0.60;;;;;;;20.86;58.10;97168.31;10370013;28;20030;-20
2022/06/18 04:32:17;;;;;;;0.25;0.25;;;;;;;21.04;59.06;97170.78;10370910;28;20030;-20
2022/06/18 04:37:18;;;;;;;0.85;0.30;;;;;;;21.10;58.64;97178.44;10369750;28;20022;-21
2022/06/18 04:42:37;;;;;;;0.50;0.50;;;;;;;20.98;58.24;97162.34;10370412;28;20413;-21
2022/06/18 04:47:40;;;;;;;0.32;0.30;;;;;;;20.94;57.91;97164.03;10408640;28;20029;-22
2022/06/18 04:52:40;;;;;;;0.57;0.57;;;;;;;20.91;57.73;97168.28;10405854;28;20040;-20
2022/06/18 04:57:41;;;;;;;0.50;0.50;;;;;;;20.92;57.88;97167.44;10394769;28;20152;-21
2022/06/18 05:02:43;;;;;;;0.40;0.40;;;;;;;20.90;57.84;97169.97;10368326;28;20045;-21
2022/06/18 05:08:04;;;;;;;0.52;0.50;;;;;;;20.90;57.82;97169.97;10369711;28;20516;-21
2022/06/18 05:13:31;;;;;;;;;;;;;;;20.88;57.79;97158.97;10370637;28;20042;-22
2022/06/18 05:18:54;;;;;;;0.57;0.57;;;;;;;20.89;58.17;97153.00;10368578;28;19913;-21
2022/06/18 05:23:55;;;;;;;0.30;0.30;;;;;;;21.11;58.88;97153.78;10368715;28;20105;-21
2022/06/18 05:28:56;;;;;;;0.30;0.30;;;;;;;21.14;58.19;97135.97;10369194;28;20496;-21
2022/06/18 05:33:57;;;;;;;0.40;0.40;;;;;;;21.01;57.85;97135.16;10368426;28;20034;-22
2022/06/18 05:39:00;;;;;;;0.30;0.30;;;;;;;20.95;57.72;97126.69;10367629;28;20036;-21
2022/06/18 05:44:02;;;;;;;0.45;0.45;;;;;;;20.93;57.95;97126.72;10375695;28;20496;-21
2022/06/18 05:49:04;;;;;;;0.73;0.50;;;;;;;20.89;57.76;97114.84;10408054;28;20033;-20
2022/06/18 05:54:04;;;;;;;0.63;0.63;;;;;;;20.91;57.80;97114.84;10381558;28;20038;-21
2022/06/18 05:59:17;;;;;;;0.50;0.50;;;;;;;20.91;57.73;97118.25;10369837;28;20710;-21
2022/06/18 06:04:19;;;;;;;0.50;0.50;;;;;;;20.91;57.74;97117.38;10381914;28;20087;-20
2022/06/18 06:14:41;;;;;;;0.30;0.30;;;;;;;21.00;59.59;97092.75;10375191;28;20037;-21
2022/06/18 06:19:42;;;;;;;0.30;0.30;;;;;;;21.18;58.13;97102.00;10366537;28;20281;-20
2022/06/18 06:24:42;;;;;;;0.30;0.30;;;;;;;21.04;58.30;97093.59;10367070;28;20030;-22
2022/06/18 06:29:43;;;;;;;0.40;0.40;;;;;;;20.96;57.70;97092.78;10367066;28;20516;-21
2022/06/18 06:34:43;;;;;;;1.60;0.40;;;;;;;20.93;57.84;97088.53;10366283;28;20299;-21
2022/06/18 06:39:43;;;;;;;0.50;0.50;;;;;;;20.92;57.79;97089.38;10366718;28;20038;-21
2022/06/18 06:44:44;;;;;;;0.30;0.30;;;;;;;20.92;57.73;97091.94;10381382;28;20100;-21
2022/06/18 06:49:44;;;;;;;0.30;0.30;;;;;;;20.92;57.66;97099.56;10407579;28;20044;-21
2022/06/18 06:54:44;;;;;;;0.57;0.57;;;;;;;20.92;57.92;97094.47;10380539;28;20029;-22
2022/06/18 06:59:45;;;;;;;0.30;0.30;;;;;;;20.89;57.77;97079.19;10367249;28;20520;-20
2022/06/18 07:04:45;;;;;;;1.03;0.70;;;;;;;21.00;60.06;97087.66;10367938;28;20026;-21
2022/06/18 07:09:46;;;;;;;0.20;0.20;;;;;;;21.17;58.71;97080.78;10369952;28;20026;-20
2022/06/18 07:14:46;;;;;;;0.43;0.40;;;;;;;21.09;58.25;97085.06;10367917;28;20069;-22
2022/06/18 07:19:46;;;;;;;0.57;0.50;;;;;;;21.02;57.73;97080.00;10370377;28;20034;-20
2022/06/18 07:24:47;;;;;;;0.70;0.60;;;;;;;20.95;57.68;97069.00;10367919;28;20451;-21
2022/06/18 07:29:47;;;;;;;0.53;0.53;;;;;;;20.93;57.72;97059.66;10368329;28;20335;-21
2022/06/18 07:34:47;;;;;;;0.57;0.50;;;;;;;20.93;57.72;97065.63;10381561;28;20702;-20
2022/06/18 07:39:48;;;;;;;0.30;0.30;;;;;;;20.91;57.66;97062.25;10368125;28;20385;-21
2022/06/18 07:44:49;;;;;;;0.50;0.50;;;;;;;20.93;57.65;97068.16;10388498;28;20044;-21
2022/06/18 07:49:49;;;;;;;0.38;0.38;;;;;;;20.93;57.84;97060.53;10402520;28;20033;-22
2022/06/18 07:54:49;;;;;;;0.60;0.60;;;;;;;20.93;58.07;97057.97;10410810;28;20040;-21
2022/06/18 07:59:50;;;;;;;0.37;0.30;;;;;;;21.14;58.85;97050.22;10380373;28;20037;-20
2022/06/18 08:04:51;;;;;;;0.20;0.20;;;;;;;21.18;58.87;97043.41;10371388;28;20072;-20
2022/06/18 08:09:51;;;;;;;0.40;0.40;;;;;;;21.05;58.22;97037.56;10372511;28;20065;-20
2022/06/18 08:14:52;;;;;;;0.30;0.30;;;;;;;21.01;57.97;97043.53;10371306;28;20038;-21
2022/06/18 08:19:52;;;;;;;0.37;0.37;;;;;;;20.99;57.96;97034.19;10372087;28;20046;-21
2022/06/18 08:24:53;;;;;;;0.60;0.60;;;;;;;20.98;57.89;97035.06;10371074;28;20030;-21
2022/06/18 08:29:54;;;;;;;0.45;0.45;;;;;;;20.97;57.75;97025.72;10371087;28;20052;-20
2022/06/18 08:34:55;;;;;;;0.40;0.40;;;;;;;20.95;57.68;97025.72;10370592;28;20467;-20
2022/06/18 08:39:57;;;;;;;0.50;0.50;;;;;;;20.95;57.76;97015.53;10371133;28;20037;-20
2022/06/18 08:45:26;;;;;;;0.40;0.40;;;;;;;20.95;57.71;97017.22;10388295;28;20090;-21
2022/06/18 08:50:34;;;;;;;0.35;0.35;;;;;;;21.12;59.21;97016.31;10403407;28;20456;-22
2022/06/18 08:55:58;;;;;;;0.20;0.20;;;;;;;21.20;58.40;97012.00;10411037;28;20025;-21
2022/06/18 09:01:08;;;;;;;0.50;0.50;;;;;;;21.03;58.29;97003.63;10370379;28;20037;-21
2022/06/18 09:06:37;;;;;;;0.22;0.22;;;;;;;20.99;57.78;96994.28;10369360;28;20061;-21
2022/06/18 09:11:49;;;;;;;0.40;0.40;;;;;;;20.99;57.91;96988.38;10369611;28;20112;-20
2022/06/18 09:17:09;;;;;;;0.50;0.50;;;;;;;20.99;57.74;96993.47;10369988;28;20034;-21
2022/06/18 09:22:16;;;;;;;0.45;0.45;;;;;;;20.97;57.69;96985.81;10370292;28;20492;-22
2022/06/18 09:27:23;;;;;;;0.30;0.30;;;;;;;20.97;57.98;96975.66;10369199;28;20030;-22
2022/06/18 09:32:47;;;;;;;0.50;0.50;;;;;;;20.97;57.51;96972.28;10368618;28;20033;-21
2022/06/18 09:38:14;;;;;;;0.32;0.32;;;;;;;20.98;58.36;96961.22;10368609;28;20404;-23
2022/06/18 09:43:42;;;;;;;0.10;0.10;;;;;;;21.19;58.69;96961.06;10368237;28;20029;-21
2022/06/18 09:48:42;;;;;;;0.40;0.30;;;;;;;21.16;58.81;96964.50;10409523;28;20506;-21
2022/06/18 09:53:43;;;;;;;0.50;0.50;;;;;;;21.08;58.18;96965.41;10379407;28;20164;-21
2022/06/18 09:59:10;;;;;;;0.50;0.50;;;;;;;21.04;57.74;96962.03;10368795;28;20052;-21
2022/06/18 10:09:47;;;;;;;0.40;0.40;;;;;;;21.03;57.90;96969.66;10367778;28;20473;-21
2022/06/18 10:14:56;;;;;;;0.50;0.50;;;;;;;21.00;57.90;96960.38;10367280;28;20052;-21
2022/06/18 10:20:12;;;;;;;0.47;0.47;;;;;;;21.01;57.88;96959.53;10367285;28;20504;-21
2022/06/18 10:25:24;;;;;;;0.50;0.50;;;;;;;21.00;57.79;96957.81;10366023;28;20030;-23
2022/06/18 10:30:36;;;;;;;0.50;0.50;;;;;;;21.07;60.93;96956.91;10366658;28;20429;-20
2022/06/18 10:36:15;;;;;;;0.20;0.20;;;;;;;21.23;58.77;96950.88;10366567;28;20041;-20
2022/06/18 10:41:50;;;;;;;0.30;0.30;;;;;;;21.16;58.84;96945.84;10354825;28;20416;-22
2022/06/18 10:47:18;;;;;;;0.32;0.32;;;;;;;21.07;57.98;96936.53;10398485;28;20048;-21
2022/06/18 10:52:24;;;;;;;0.50;0.50;;;;;;;21.00;58.08;96918.78;10404203;28;20057;-21
2022/06/18 10:57:26;;;;;;;0.60;0.60;;;;;;;21.05;58.35;96920.44;10394289;28;20038;-21
2022/06/18 11:02:36;;;;;;;0.50;0.50;;;;;;;21.01;58.16;96913.69;10366303;28;20181;-22
2022/06/18 11:07:37;;;;;;;0.30;0.30;;;;;;;21.04;58.08;96910.28;10365932;28;20069;-20
2022/06/18 11:12:39;;;;;;;0.95;0.68;;;;;;;21.02;57.98;96902.66;10365495;28;20049;-20
2022/06/18 11:17:43;;;;;;;0.65;0.55;;;;;;;21.02;57.92;96907.75;10372928;28;20037;-21
2022/06/18 11:22:49;;;;;;;0.30;0.30;;;;;;;21.13;60.45;96894.94;10370684;28;20496;-20
2022/06/18 11:27:51;;;;;;;0.20;0.20;;;;;;;21.31;58.81;96882.88;10373717;28;20080;-21
2022/06/18 11:32:52;;;;;;;0.45;0.30;;;;;;;21.19;58.97;96874.50;10373374;28;20073;-21
2022/06/18 11:38:00;;;;;;;0.30;0.30;;;;;;;21.11;58.12;96866.94;10373143;28;20523;-23
2022/06/18 11:43:39;;;;;;;0.40;0.40;;;;;;;21.08;58.00;96853.38;10373456;28;20042;-20
2022/06/18 11:48:54;;;;;;;0.68;0.60;;;;;;;21.07;58.06;96844.06;10413741;28;20037;-21
2022/06/18 11:54:32;;;;;;;0.43;0.43;;;;;;;21.04;57.85;96834.75;10381828;28;20107;-22
2022/06/18 11:59:52;;;;;;;0.40;0.40;;;;;;;21.03;58.09;96822.88;10371441;28;20048;-20
2022/06/18 12:05:08;;;;;;;0.40;0.40;;;;;;;21.03;57.98;96822.88;10372217;28;20396;-20
2022/06/18 12:10:15;;;;;;;0.60;0.60;;;;;;;21.03;57.90;96812.69;10372858;28;20041;-22
2022/06/18 12:15:26;;;;;;;0.20;0.20;;;;;;;21.18;59.92;96801.53;10371467;28;20488;-21
2022/06/18 12:20:47;;;;;;;0.20;0.20;;;;;;;21.28;58.52;96793.78;10371940;28;20033;-22
2022/06/18 12:26:05;;;;;;;0.28;0.28;;;;;;;21.15;58.66;96791.38;10371238;28;20120;-21
2022/06/18 12:31:12;;;;;;;0.55;0.30;;;;;;;21.10;58.10;96773.59;10371661;28;20519;-22
2022/06/18 12:36:23;;;;;;;0.40;0.40;;;;;;;21.08;57.96;96779.56;10370948;28;20121;-21
2022/06/18 12:41:38;;;;;;;0.50;0.50;;;;;;;21.07;57.98;96771.06;10371049;28;20026;-21
2022/06/18 12:47:02;;;;;;;0.40;0.40;;;;;;;21.06;57.73;96756.66;10401093;28;20052;-23
2022/06/18 12:52:24;;;;;;;0.60;0.60;;;;;;;21.06;57.79;96746.47;10387112;28;20049;-21
2022/06/18 12:57:39;;;;;;;0.60;0.60;;;;;;;21.04;58.06;96740.56;10395019;28;20508;-21
2022/06/18 13:03:01;;;;;;;0.50;0.50;;;;;;;21.02;58.39;96733.78;10369753;28;20038;-21
2022/06/18 13:08:13;;;;;;;0.55;0.40;;;;;;;21.27;59.06;96740.31;10387547;28;20038;-20
2022/06/18 13:13:48;;;;;;;0.20;0.20;;;;;;;21.25;59.02;96737.81;10369822;28;20041;-20
2022/06/18 13:18:58;;;;;;;0.30;0.30;;;;;;;21.13;58.34;96722.63;10364810;28;20048;-20
2022/06/18 13:29:55;;;;;;;0.30;0.30;;;;;;;21.07;57.60;96717.59;10368983;28;20404;-21
2022/06/18 13:35:18;;;;;;;0.43;0.43;;;;;;;21.07;57.83;96706.59;10356659;28;20053;-19
2022/06/18 13:40:34;;;;;;;0.40;0.40;;;;;;;21.06;57.48;96699.81;10368670;28;20117;-22
2022/06/18 13:45:59;;;;;;;0.70;0.43;;;;;;;21.07;57.93;96694.69;10389716;28;20032;-21
2022/06/18 13:51:00;;;;;;;0.40;0.40;;;;;;;21.06;57.95;96682.81;10400123;28;20124;-22
2022/06/18 13:56:13;;;;;;;0.30;0.30;;;;;;;21.12;60.09;96675.13;10407642;28;20540;-21
2022/06/18 14:01:16;;;;;;;0.40;0.30;;;;;;;21.36;58.85;96679.94;10368955;28;20167;-24
2022/06/18 14:06:19;;;;;;;0.30;0.30;;;;;;;21.23;58.86;96668.19;10366968;28;20069;-21
2022/06/18 14:11:30;;;;;;;0.43;0.40;;;;;;;21.15;58.19;96670.00;10367943;28;20121;-21
2022/06/18 14:16:37;;;;;;;0.30;0.28;;;;;;;21.13;57.98;96666.63;10367004;28;20088;-21
2022/06/18 14:21:39;;;;;;;0.30;0.30;;;;;;;21.12;57.95;96664.09;10367341;28;20057;-22
2022/06/18 14:26:49;;;;;;;0.68;0.60;;;;;;;21.12;58.07;96659.84;10366481;28;20384;-21
2022/06/18 14:32:04;;;;;;;0.50;0.50;;;;;;;21.10;58.02;96656.50;10367576;28;20116;-21
2022/06/18 14:37:07;;;;;;;0.40;0.40;;;;;;;21.11;58.19;96644.59;10366826;28;20547;-21
2022/06/18 14:42:42;;;;;;;0.40;0.30;;;;;;;21.10;57.70;96635.25;10367183;28;20570;-21
2022/06/18 14:48:24;;;;;;;0.50;0.30;;;;;;;21.23;60.68;96631.72;10406048;28;20061;-20
2022/06/18 14:53:33;;;;;;;0.20;0.20;;;;;;;21.37;58.44;96620.50;10400696;28;20045;-21
2022/06/18 14:58:33;;;;;;;0.30;0.30;;;;;;;21.23;58.89;96614.72;10394337;28;20038;-21
2022/06/18 15:04:12;;;;;;;0.35;0.30;;;;;;;21.17;58.20;96609.72;10374578;28;20496;-21
2022/06/18 15:09:15;;;;;;;0.50;0.50;;;;;;;21.14;58.09;96606.38;10374125;28;20038;-21
2022/06/18 15:14:23;;;;;;;0.40;0.32;;;;;;;21.13;57.99;96595.34;10373625;28;20610;-21
2022/06/18 15:19:33;;;;;;;0.32;0.32;;;;;;;21.13;57.96;96595.34;10375126;28;20281;-20
2022/06/18 15:30:02;;;;;;;1.38;0.50;;;;;;;21.12;57.99;96573.28;10376350;28;20038;-22
2022/06/18 15:35:15;;;;;;;0.50;0.50;;;;;;;21.10;58.43;96549.56;10374852;28;20137;-21
2022/06/18 15:40:27;;;;;;;0.30;0.25;;;;;;;21.27;59.64;96547.63;10417792;28;20116;-21
2022/06/18 15:45:39;;;;;;;0.47;0.10;;;;;;;21.35;59.37;96557.69;10398738;28;20033;-20
2022/06/18 15:50:41;;;;;;;0.20;0.20;;;;;;;21.24;58.70;96541.75;10407006;28;20061;-20
2022/06/18 15:55:44;;;;;;;0.38;0.38;;;;;;;21.17;58.23;96533.34;10413272;28;20045;-21
2022/06/18 16:00:44;;;;;;;0.40;0.40;;;;;;;21.17;58.10;96522.31;10372806;28;20492;-22
2022/06/18 16:05:46;;;;;;;0.50;0.50;;;;;;;21.09;57.86;96512.25;10371972;28;20311;-21
2022/06/18 16:10:47;;;;;;;0.40;0.40;;;;;;;21.14;58.01;96515.56;10371154;28;20152;-21
2022/06/18 16:15:50;;;;;;;0.52;0.43;;;;;;;21.14;58.15;96505.38;10385178;28;20040;-20
2022/06/18 16:20:59;;;;;;;0.57;0.38;;;;;;;21.15;57.99;96501.94;10372531;28;20408;-21
2022/06/18 16:26:01;;;;;;;0.68;0.60;;;;;;;21.15;58.49;96509.59;10370778;28;20120;-21
2022/06/18 16:31:03;;;;;;;0.30;0.30;;;;;;;21.34;59.61;96493.22;10371704;28;20038;-21
2022/06/18 16:36:14;;;;;;;0.20;0.20;;;;;;;21.39;59.57;96496.50;10370249;28;20087;-22
2022/06/18 16:41:14;;;;;;;0.55;0.40;;;;;;;21.26;58.97;96489.94;10371262;28;20042;-21
2022/06/18 16:46:20;;;;;;;0.40;0.40;;;;;;;21.22;58.22;96495.09;10398037;28;20029;-21
2022/06/18 16:51:36;;;;;;;0.63;0.40;;;;;;;21.19;58.13;96493.44;10402893;28;20037;-22
2022/06/18 16:56:36;;;;;;;0.40;0.40;;;;;;;21.18;58.22;96496.84;10370818;28;20278;-21
2022/06/18 17:01:37;;;;;;;0.77;0.40;;;;;;;21.18;58.20;96481.56;10370558;28;20481;-21
2022/06/18 17:06:38;;;;;;;1.02;0.50;;;;;;;21.12;58.10;96470.59;10369504;28;20296;-21
2022/06/18 17:11:41;;;;;;;0.50;0.50;;;;;;;21.17;58.01;96473.94;10369338;28;20045;-21
2022/06/18 17:16:41;;;;;;;0.50;0.50;;;;;;;21.15;57.97;96463.78;10369176;28;20037;-22
2022/06/18 17:21:45;;;;;;;0.37;0.37;;;;;;;21.35;60.31;96466.88;10369952;28;20049;-21
2022/06/18 17:32:04;;;;;;;0.30;0.30;;;;;;;21.27;58.61;96458.50;10369408;28;20073;-21
2022/06/18 17:37:07;;;;;;;0.43;0.40;;;;;;;21.22;58.17;96451.81;10365847;28;20018;-20
2022/06/18 17:42:07;;;;;;;1.55;0.47;;;;;;;21.20;58.10;96444.19;10368084;28;20357;-21
2022/06/18 17:47:09;;;;;;;0.22;0.22;;;;;;;21.18;57.99;96440.81;10402851;28;20029;-21
2022/06/18 17:52:12;;;;;;;0.50;0.38;;;;;;;21.17;57.87;96441.69;10404578;28;20095;-23
2022/06/18 17:57:13;;;;;;;0.98;0.40;;;;;;;21.18;57.88;96427.25;10397219;28;20160;-22
2022/06/18 18:02:18;;;;;;;0.30;0.30;;;;;;;21.16;57.89;96424.75;10368161;28;20537;-22
2022/06/18 18:07:20;;;;;;;0.38;0.28;;;;;;;21.16;57.96;96421.34;10367742;28;20779;-21
2022/06/18 18:12:23;;;;;;;0.52;0.40;;;;;;;21.34;60.27;96421.06;10366992;28;20120;-21
2022/06/18 18:17:23;;;;;;;0.40;0.25;;;;;;;21.43;58.96;96413.25;10367334;28;20033;-22
2022/06/18 18:22:24;;;;;;;0.55;0.55;;;;;;;21.24;58.78;96407.63;10366739;28;20038;-20
2022/06/18 18:27:27;;;;;;;0.20;0.20;;;;;;;21.23;58.14;96418.66;10367116;28;20037;-20
2022/06/18 18:32:27;;;;;;;0.20;0.20;;;;;;;21.16;57.96;96414.56;10366909;28;20045;-22
2022/06/18 18:37:28;;;;;;;0.35;0.35;;;;;;;21.13;57.84;96401.84;10367347;28;20033;-22
2022/06/18 18:42:28;;;;;;;0.50;0.40;;;;;;;21.18;58.00;96405.19;10366130;28;20052;-21
2022/06/18 18:47:30;;;;;;;1.55;0.30;;;;;;;21.17;58.08;96393.31;10404771;28;20284;-21
2022/06/18 18:52:31;;;;;;;0.25;0.25;;;;;;;21.17;57.83;96385.69;10390574;28;20049;-22
2022/06/18 18:57:31;;;;;;;0.70;0.40;;;;;;;21.16;57.90;96371.28;10367001;28;20037;-22
2022/06/18 19:02:32;;;;;;;0.20;0.20;;;;;;;21.35;60.20;96365.00;10366817;28;20272;-20
2022/06/18 19:07:32;;;;;;;1.05;0.30;;;;;;;21.45;59.17;96350.38;10366222;28;20038;-21
2022/06/18 19:17:53;;;;;;;0.40;0.30;;;;;;;21.26;58.21;96357.53;10366251;28;20076;-21
2022/06/18 19:22:53;;;;;;;0.30;0.30;;;;;;;21.24;57.99;96358.41;10365810;28;20581;-21
2022/06/18 19:27:54;;;;;;;0.40;0.30;;;;;;;21.22;58.08;96357.59;10366392;28;20032;-21
2022/06/18 19:32:54;;;;;;;0.45;0.45;;;;;;;21.22;58.07;96367.78;10365937;28;20041;-21
2022/06/18 19:37:55;;;;;;;0.60;0.30;;;;;;;21.22;57.91;96370.34;10370843;28;20087;-21
2022/06/18 19:42:56;;;;;;;0.70;0.32;;;;;;;21.21;58.07;96363.56;10372795;28;20038;-22
2022/06/18 19:47:57;;;;;;;0.68;0.40;;;;;;;21.20;57.77;96362.72;10414129;28;20424;-22
2022/06/18 19:52:58;;;;;;;0.30;0.30;;;;;;;21.37;60.42;96365.81;10405386;28;20041;-22
2022/06/18 19:57:59;;;;;;;0.20;0.20;;;;;;;21.46;59.06;96372.47;10395439;28;20112;-21
2022/06/18 20:03:02;;;;;;;0.30;0.30;;;;;;;21.32;58.78;96385.41;10372363;28;20042;-21
2022/06/18 20:08:03;;;;;;;0.75;0.35;;;;;;;21.20;57.87;96372.03;10372070;28;20787;-20
2022/06/18 20:13:04;;;;;;;0.40;0.40;;;;;;;21.23;57.83;96382.19;10371360;28;20452;-21
2022/06/18 20:18:05;;;;;;;1.02;0.60;;;;;;;21.22;57.93;96381.34;10371714;28;20050;-21
2022/06/18 20:23:06;;;;;;;0.88;0.60;;;;;;;21.23;57.91;96379.66;10371264;28;20519;-21
2022/06/18 20:28:07;;;;;;;0.50;0.43;;;;;;;21.22;57.92;96372.88;10372286;28;20034;-21
2022/06/18 20:33:10;;;;;;;0.88;0.60;;;;;;;21.21;57.85;96379.66;10371043;28;20125;-21
2022/06/18 20:38:10;;;;;;;0.30;0.30;;;;;;;21.22;57.91;96367.78;10371425;28;20034;-21
2022/06/18 20:43:11;;;;;;;0.20;0.20;;;;;;;21.40;60.09;96364.94;10373400;28;20040;-22
2022/06/18 20:48:11;;;;;;;0.40;0.40;;;;;;;21.51;58.58;96361.34;10412892;28;20053;-24
2022/06/18 20:53:13;;;;;;;0.97;0.37;;;;;;;21.37;59.03;96355.63;10400384;28;20048;-22
2022/06/18 20:58:14;;;;;;;1.48;0.30;;;;;;;21.29;57.84;96351.56;10392164;28;20296;-22
2022/06/18 21:03:14;;;;;;;0.73;0.40;;;;;;;21.27;57.94;96356.66;10370009;28;20037;-24
2022/06/18 21:08:15;;;;;;;0.25;0.25;;;;;;;21.24;58.13;96354.13;10369977;28;20030;-21
2022/06/18 21:13:15;;;;;;;0.45;0.45;;;;;;;21.23;57.95;96362.66;10369891;28;20040;-22
2022/06/18 21:18:16;;;;;;;0.38;0.38;;;;;;;21.23;58.13;96357.56;10369874;28;20037;-20
2022/06/18 21:23:17;;;;;;;0.45;0.38;;;;;;;21.24;57.81;96353.31;10369147;28;20112;-21
2022/06/18 21:28:18;;;;;;;0.40;0.35;;;;;;;21.23;57.91;96341.47;10369598;28;20029;-23
2022/06/18 21:38:38;;;;;;;0.40;0.38;;;;;;;21.50;58.65;96326.53;10369092;28;20280;-21
2022/06/18 21:43:39;;;;;;;0.55;0.45;;;;;;;21.34;58.95;96325.13;10374200;28;20037;-20
2022/06/18 21:48:41;;;;;;;0.30;0.30;;;;;;;21.27;58.18;96318.47;10409742;28;20404;-22
2022/06/18 21:53:41;;;;;;;0.28;0.28;;;;;;;21.27;58.34;96315.91;10381428;28;20049;-20
2022/06/18 21:58:44;;;;;;;0.30;0.30;;;;;;;21.25;58.04;96304.94;10368361;28;20447;-23
2022/06/18 22:03:44;;;;;;;0.90;0.30;;;;;;;21.23;57.78;96291.34;10367559;28;20049;-21
2022/06/18 22:08:49;;;;;;;1.13;0.50;;;;;;;21.24;57.87;96287.13;10368348;28;20029;-21
2022/06/18 22:19:09;;;;;;;0.82;0.40;;;;;;;21.24;57.83;96287.94;10369995;28;20034;-20
2022/06/18 22:24:10;;;;;;;0.55;0.30;;;;;;;21.41;60.20;96280.84;10369197;28;20163;-20
2022/06/18 22:29:11;;;;;;;0.20;0.20;;;;;;;21.48;58.52;96274.75;10370765;28;20026;-21
2022/06/18 22:34:13;;;;;;;0.65;0.30;;;;;;;21.36;58.76;96277.56;10370006;28;20088;-23
2022/06/18 22:39:14;;;;;;;0.22;0.22;;;;;;;21.32;58.24;96286.09;10367622;28;20029;-20
2022/06/18 22:44:19;;;;;;;0.32;0.30;;;;;;;21.29;58.08;96288.72;10377461;28;20044;-21
2022/06/18 22:49:24;;;;;;;0.98;0.40;;;;;;;21.28;57.85;96289.59;10409205;28;20039;-20
2022/06/18 22:54:35;;;;;;;0.50;0.40;;;;;;;21.24;57.93;96271.84;10404608;28;20040;-22
2022/06/18 22:59:36;;;;;;;0.40;0.40;;;;;;;21.25;57.98;96259.09;10377379;28;20030;-21
2022/06/18 23:04:37;;;;;;;0.40;0.40;;;;;;;21.25;58.08;96266.72;10366252;28;20049;-21
2022/06/18 23:09:40;;;;;;;0.35;0.35;;;;;;;21.26;57.85;96260.78;10367219;28;20073;-21
2022/06/18 23:14:49;;;;;;;0.40;0.30;;;;;;;21.46;59.86;96261.22;10373623;28;20099;-22
2022/06/18 23:20:03;;;;;;;0.25;0.20;;;;;;;21.49;58.92;96268.81;10375227;28;20033;-21
2022/06/18 23:25:05;;;;;;;0.30;0.30;;;;;;;21.37;58.77;96260.56;10373970;28;20504;-21
2022/06/18 23:30:09;;;;;;;0.63;0.30;;;;;;;21.34;58.12;96269.09;10373939;28;20030;-22
2022/06/18 23:35:14;;;;;;;0.75;0.30;;;;;;;21.34;57.99;96258.06;10373080;28;20053;-21
2022/06/18 23:40:23;;;;;;;0.28;0.20;;;;;;;21.32;58.01;96259.81;10370453;28;20734;-21
2022/06/18 23:45:26;;;;;;;0.45;0.30;;;;;;;21.29;57.80;96260.69;10392996;28;20470;-20
2022/06/18 23:50:32;;;;;;;0.80;0.40;;;;;;;21.27;58.04;96247.16;10400791;28;20049;-21
2022/06/18 23:55:36;;;;;;;0.40;0.40;;;;;;;21.26;57.85;96245.50;10413450;28;20061;-25
